Time;durP1;ratioP1;P1;durP2;ratioP2;P2;SDS_P1;SDS_P2;PMS_P1;PMS_P2;Temp;Humidity;BMP_temperature;BMP_pressure;BME280_temperature;BME280_humidity;BME280_pressure;Samples;Min_cycle;Max_cycle;Signal;HPM_P1;HPM_P2
2021/03/12 00:00:46;;;;;;;0.40;0.40;;;;;;;3.54;95.16;94788.81;5028471;28;20063;-64
2021/03/12 00:03:17;;;;;;;0.22;0.22;;;;;;;3.48;96.00;94777.53;5028058;28;20033;-63
2021/03/12 00:05:54;;;;;;;0.43;0.15;;;;;;;3.69;95.21;94811.66;5028330;28;20046;-63
2021/03/12 00:08:30;;;;;;;0.77;0.35;;;;;;;3.55;95.05;94801.69;5028422;28;20037;-64
2021/03/12 00:10:56;;;;;;;2.42;0.50;;;;;;;3.65;95.58;94785.88;5028565;28;20057;-64
2021/03/12 00:13:24;;;;;;;0.57;0.40;;;;;;;3.94;95.05;94800.22;5043722;28;20701;-64
2021/03/12 00:15:49;;;;;;;0.25;0.10;;;;;;;3.58;95.88;94789.81;5030137;28;20028;-63
2021/03/12 00:18:17;;;;;;;0.30;0.30;;;;;;;3.82;94.15;94811.06;5028220;28;20042;-63
2021/03/12 00:20:43;;;;;;;0.38;0.30;;;;;;;4.07;93.12;94815.44;5026842;28;20045;-63
2021/03/12 00:23:08;;;;;;;1.20;0.40;;;;;;;4.15;92.92;94825.41;5028131;28;20034;-63
2021/03/12 00:25:38;;;;;;;0.95;0.20;;;;;;;4.22;92.38;94815.34;5028493;28;20596;-63
2021/03/12 00:28:04;;;;;;;1.45;0.13;;;;;;;3.97;92.88;94815.47;5028862;28;20119;-63
2021/03/12 00:30:30;;;;;;;0.40;0.10;;;;;;;3.83;92.17;94781.06;5028494;28;20041;-63
2021/03/12 00:32:56;;;;;;;0.03;0.03;;;;;;;3.93;91.37;94812.59;5026793;28;20517;-64
2021/03/12 00:35:21;;;;;;;0.20;0.20;;;;;;;3.86;91.15;94773.41;5028236;28;20191;-62
2021/03/12 00:37:46;;;;;;;0.38;0.38;;;;;;;3.99;91.39;94795.72;5043385;28;20044;-64
2021/03/12 00:40:15;;;;;;;0.90;0.20;;;;;;;4.21;91.69;94842.75;5030119;28;20423;-63
2021/03/12 00:42:41;;;;;;;0.20;0.20;;;;;;;4.04;91.40;94840.44;5027862;28;20061;-63
2021/03/12 00:45:09;;;;;;;2.13;0.30;;;;;;;4.16;91.01;94845.41;5027799;28;20033;-64
2021/03/12 00:47:34;;;;;;;0.47;0.10;;;;;;;4.20;91.20;94846.44;5043161;28;20045;-62
2021/03/12 00:50:00;;;;;;;0.30;0.17;;;;;;;3.99;91.25;94808.88;5028151;28;20045;-63
2021/03/12 00:52:26;;;;;;;0.43;0.20;;;;;;;3.75;92.97;94792.16;5027926;28;20099;-63
2021/03/12 00:54:51;;;;;;;0.32;0.30;;;;;;;4.09;91.65;94823.84;5029911;28;20470;-63
2021/03/12 00:57:17;;;;;;;0.70;0.40;;;;;;;4.02;91.41;94797.81;5027812;28;20041;-63
2021/03/12 00:59:42;;;;;;;0.30;0.25;;;;;;;3.84;91.32;94811.59;5028861;28;20535;-63
2021/03/12 01:02:07;;;;;;;0.77;0.20;;;;;;;3.81;91.16;94770.81;5046681;28;20075;-62
2021/03/12 01:04:33;;;;;;;1.08;0.25;;;;;;;4.02;90.76;94783.88;5031750;28;20025;-63
2021/03/12 01:06:58;;;;;;;0.28;0.10;;;;;;;3.64;91.60;94750.09;5033314;28;20032;-63
2021/03/12 01:09:23;;;;;;;0.88;0.10;;;;;;;3.82;91.80;94782.91;5031565;28;20064;-62
2021/03/12 01:11:48;;;;;;;1.48;0.10;;;;;;;3.85;91.88;94781.59;5030060;28;20041;-62
2021/03/12 01:14:14;;;;;;;1.02;0.10;;;;;;;4.01;92.06;94803.34;5031537;28;20129;-62
2021/03/12 01:16:39;;;;;;;1.70;0.17;;;;;;;4.00;91.61;94784.16;5031409;28;20040;-61
2021/03/12 01:19:05;;;;;;;0.52;0.10;;;;;;;3.86;91.46;94775.25;5033196;28;20502;-62
2021/03/12 01:21:30;;;;;;;1.08;0.13;;;;;;;4.08;91.11;94811.72;5031052;28;20445;-63
2021/03/12 01:23:56;;;;;;;0.10;0.10;;;;;;;3.92;92.45;94819.69;5031413;28;20444;-62
2021/03/12 01:26:21;;;;;;;0.55;0.20;;;;;;;3.70;93.24;94785.06;5029956;28;20030;-62
2021/03/12 01:28:46;;;;;;;0.35;0.10;;;;;;;3.28;93.75;94757.31;5030879;28;20223;-62
2021/03/12 01:31:12;;;;;;;1.75;0.30;;;;;;;3.42;94.01;94773.31;5031723;28;20024;-63
2021/03/12 01:33:37;;;;;;;1.40;0.20;;;;;;;3.83;93.86;94818.66;5030991;28;20123;-61
2021/03/12 01:36:03;;;;;;;0.08;0.00;;;;;;;3.43;94.46;94809.09;5031030;28;20164;-61
2021/03/12 01:38:28;;;;;;;0.10;0.00;;;;;;;3.44;94.83;94829.06;5030758;28;20033;-62
2021/03/12 01:40:54;;;;;;;0.70;0.20;;;;;;;3.37;96.34;94810.13;5030849;28;20535;-62
2021/03/12 01:43:20;;;;;;;2.45;0.20;;;;;;;3.31;94.99;94826.97;5032491;28;20030;-62
2021/03/12 01:45:48;;;;;;;1.77;0.47;;;;;;;3.37;96.34;94828.53;5030668;28;20042;-61
2021/03/12 01:48:16;;;;;;;0.35;0.20;;;;;;;3.27;96.10;94844.31;5030596;28;20036;-62
2021/03/12 01:50:47;;;;;;;2.15;0.50;;;;;;;3.43;97.11;94845.91;5029309;28;20380;-61
2021/03/12 01:53:17;;;;;;;0.20;0.17;;;;;;;3.12;97.11;94821.47;5030616;28;20557;-63
2021/03/12 01:55:43;;;;;;;0.10;0.10;;;;;;;3.17;96.38;94839.84;5030271;28;20041;-61
2021/03/12 01:58:08;;;;;;;0.28;0.10;;;;;;;3.18;96.47;94835.41;5031124;28;20087;-61
2021/03/12 02:00:35;;;;;;;0.20;0.20;;;;;;;3.32;95.54;94852.19;5030772;28;20500;-62
2021/03/12 02:03:03;;;;;;;0.28;0.10;;;;;;;2.97;95.77;94772.38;5030351;28;20049;-61
2021/03/12 02:05:28;;;;;;;0.28;0.00;;;;;;;3.22;95.30;94823.28;5030499;28;20025;-63
2021/03/12 02:07:55;;;;;;;0.00;0.00;;;;;;;3.15;95.57;94794.66;5030229;28;20037;-63
2021/03/12 02:10:26;;;;;;;0.00;0.00;;;;;;;3.12;94.51;94803.88;5046470;28;20124;-63
2021/03/12 02:13:24;;;;;;;1.98;0.20;;;;;;;3.26;94.17;94832.22;5030502;28;20079;-63
2021/03/12 02:16:09;;;;;;;0.10;0.10;;;;;;;3.26;93.61;94825.13;5028833;28;20044;-63
2021/03/12 02:19:00;;;;;;;0.57;0.20;;;;;;;3.44;92.20;94808.03;5030075;28;20040;-62
2021/03/12 02:21:31;;;;;;;1.10;0.10;;;;;;;3.42;92.58;94810.13;5029897;28;20701;-63
2021/03/12 02:24:06;;;;;;;0.90;0.10;;;;;;;3.17;91.94;94810.16;5030159;28;20683;-62
2021/03/12 02:26:42;;;;;;;0.25;0.10;;;;;;;3.38;90.70;94817.78;5030466;28;20395;-64
2021/03/12 02:29:29;;;;;;;0.28;0.10;;;;;;;3.38;90.54;94838.00;5030381;28;20563;-63
2021/03/12 02:31:56;;;;;;;0.43;0.20;;;;;;;3.39;89.80;94821.97;5029863;28;20041;-62
2021/03/12 02:34:25;;;;;;;7.03;0.28;;;;;;;3.50;90.54;94840.34;5032097;28;20024;-61
2021/03/12 02:36:56;;;;;;;2.80;0.35;;;;;;;3.57;90.73;94838.22;5028757;28;20045;-62
2021/03/12 02:39:24;;;;;;;0.52;0.30;;;;;;;3.58;90.17;94798.53;5029991;28;20041;-62
2021/03/12 02:41:54;;;;;;;0.45;0.20;;;;;;;3.70;88.97;94842.94;5044713;28;20399;-62
2021/03/12 02:44:21;;;;;;;2.03;0.20;;;;;;;3.76;89.61;94814.75;5029832;28;20060;-62
2021/03/12 02:46:48;;;;;;;1.38;0.20;;;;;;;3.71;89.08;94817.41;5029427;28;20136;-62
2021/03/12 02:49:14;;;;;;;0.28;0.28;;;;;;;3.75;88.85;94789.53;5030349;28;20395;-62
2021/03/12 02:51:42;;;;;;;1.17;0.25;;;;;;;3.61;87.88;94819.00;5029398;28;20053;-62
2021/03/12 02:54:08;;;;;;;0.73;0.20;;;;;;;3.57;86.81;94791.66;5029473;28;20046;-61
2021/03/12 02:56:34;;;;;;;0.80;0.30;;;;;;;3.64;87.01;94809.81;5029335;28;20041;-61
2021/03/12 02:59:00;;;;;;;4.38;0.30;;;;;;;3.57;87.34;94832.97;5029286;28;20136;-61
2021/03/12 03:01:27;;;;;;;1.85;0.57;;;;;;;3.58;87.83;94818.75;5029226;28;20025;-63
2021/03/12 03:03:54;;;;;;;1.75;0.30;;;;;;;3.54;86.14;94802.75;5031406;28;20014;-61
2021/03/12 03:06:20;;;;;;;0.15;0.10;;;;;;;3.56;87.25;94805.88;5029284;28;20530;-62
2021/03/12 03:08:46;;;;;;;0.60;0.22;;;;;;;3.61;86.67;94819.00;5029014;28;20046;-62
2021/03/12 03:11:14;;;;;;;2.17;0.10;;;;;;;3.48;86.69;94829.28;5029288;28;20029;-62
2021/03/12 03:13:42;;;;;;;1.17;0.25;;;;;;;3.45;86.72;94822.75;5029113;28;20030;-62
2021/03/12 03:16:14;;;;;;;0.63;0.57;;;;;;;3.62;87.36;94857.41;5029780;28;20025;-61
2021/03/12 03:18:40;;;;;;;0.52;0.32;;;;;;;3.60;87.57;94833.22;5029017;28;20552;-61
2021/03/12 03:21:08;;;;;;;2.00;0.25;;;;;;;3.82;88.63;94872.34;5028785;28;20081;-63
2021/03/12 03:23:41;;;;;;;2.38;0.30;;;;;;;3.74;88.28;94843.97;5028191;28;20502;-62
2021/03/12 03:26:07;;;;;;;2.08;0.38;;;;;;;3.79;88.50;94845.81;5027953;28;20128;-61
2021/03/12 03:28:34;;;;;;;1.33;0.30;;;;;;;3.86;88.57;94844.47;5043230;22;21079;-78
2021/03/12 03:31:00;;;;;;;0.17;0.13;;;;;;;3.80;88.32;94858.69;5035534;28;20463;-78
2021/03/12 03:33:26;;;;;;;0.50;0.20;;;;;;;3.82;88.85;94869.72;5050474;28;20037;-78
2021/03/12 03:35:51;;;;;;;2.42;0.35;;;;;;;3.96;88.69;94854.16;5050593;28;20044;-79
2021/03/12 03:38:16;;;;;;;1.52;0.30;;;;;;;4.09;88.05;94855.41;5050587;28;20041;-78
2021/03/12 03:40:42;;;;;;;2.85;0.50;;;;;;;3.74;88.36;94858.97;5050278;28;20512;-79
2021/03/12 03:43:10;;;;;;;2.47;0.40;;;;;;;3.96;87.78;94856.00;5052152;28;20032;-80
2021/03/12 03:45:36;;;;;;;1.10;0.20;;;;;;;3.99;87.83;94860.72;5066241;28;20041;-76
2021/03/12 03:48:02;;;;;;;1.15;0.30;;;;;;;4.06;87.41;94863.88;5050505;28;20642;-78
2021/03/12 03:50:28;;;;;;;0.63;0.10;;;;;;;3.97;87.06;94853.09;5050543;28;20108;-78
2021/03/12 03:52:54;;;;;;;1.92;0.38;;;;;;;4.22;86.02;94861.97;5049543;28;20071;-77
2021/03/12 03:55:26;;;;;;;0.82;0.45;;;;;;;4.41;86.52;94878.72;5051799;28;20052;-79
2021/03/12 03:57:52;;;;;;;0.95;0.30;;;;;;;4.30;85.50;94870.09;5050768;28;20059;-81
2021/03/12 04:00:19;;;;;;;1.10;0.20;;;;;;;4.33;86.29;94866.13;5050624;28;20108;-78
2021/03/12 04:02:46;;;;;;;2.58;0.35;;;;;;;4.29;84.55;94872.97;5050262;28;20099;-80
2021/03/12 04:05:14;;;;;;;2.33;0.20;;;;;;;4.53;84.21;94891.56;5050526;28;20061;-79
2021/03/12 04:07:40;;;;;;;1.90;0.28;;;;;;;4.47;83.89;94869.72;5050323;28;20017;-79
2021/03/12 04:10:07;;;;;;;3.20;0.50;;;;;;;4.51;84.85;94894.47;5052594;28;20476;-77
2021/03/12 04:12:33;;;;;;;3.35;0.40;;;;;;;4.50;84.13;94898.16;5049225;28;20082;-77
2021/03/12 04:15:00;;;;;;;0.50;0.38;;;;;;;4.53;83.63;94896.84;5065702;28;20029;-78
2021/03/12 04:17:26;;;;;;;1.30;0.50;;;;;;;4.73;83.64;94917.00;5050092;28;20103;-77
2021/03/12 04:19:52;;;;;;;1.88;0.20;;;;;;;4.43;83.40;94911.63;5050427;28;20036;-77
2021/03/12 04:22:18;;;;;;;1.58;0.25;;;;;;;4.51;83.88;94925.31;5051752;28;20025;-78
2021/03/12 04:24:44;;;;;;;1.00;0.45;;;;;;;4.49;84.24;94922.13;5049828;28;20037;-79
2021/03/12 04:27:10;;;;;;;1.17;0.20;;;;;;;4.33;85.03;94922.19;5049394;28;20098;-77
2021/03/12 04:29:36;;;;;;;1.75;0.32;;;;;;;4.54;85.54;94938.69;5049382;28;20033;-76
2021/03/12 04:32:02;;;;;;;2.33;0.47;;;;;;;4.29;84.92;94950.13;5049337;28;20154;-76
2021/03/12 04:34:27;;;;;;;1.77;0.40;;;;;;;4.27;85.12;94933.03;5051507;28;20063;-76
2021/03/12 04:36:53;;;;;;;1.33;0.15;;;;;;;4.04;85.11;94940.44;5055049;28;20068;-76
2021/03/12 04:39:20;;;;;;;2.05;0.40;;;;;;;3.88;85.53;94950.22;5053290;28;20125;-76
2021/03/12 04:41:46;;;;;;;3.05;0.50;;;;;;;3.93;85.26;94941.53;5053088;28;20096;-75
2021/03/12 04:44:12;;;;;;;0.95;0.20;;;;;;;3.94;84.42;94942.31;5052769;28;20390;-76
2021/03/12 04:46:39;;;;;;;1.05;0.20;;;;;;;3.79;82.92;94972.09;5052759;28;20494;-76
2021/03/12 04:49:09;;;;;;;1.25;0.32;;;;;;;3.80;83.60;94949.97;5054681;28;20520;-74
2021/03/12 04:51:37;;;;;;;0.47;0.35;;;;;;;3.74;86.10;94941.31;5051258;28;20037;-74
2021/03/12 04:54:10;;;;;;;1.05;0.40;;;;;;;3.80;85.11;94949.97;5052656;28;20174;-76
2021/03/12 04:56:37;;;;;;;1.17;0.30;;;;;;;3.53;86.61;94935.28;5052718;28;20090;-75
2021/03/12 04:59:04;;;;;;;3.20;0.40;;;;;;;3.54;87.79;94942.13;5052272;28;20033;-76
2021/03/12 05:01:30;;;;;;;2.65;0.73;;;;;;;3.47;86.97;94952.09;5052291;28;20033;-74
2021/03/12 05:03:56;;;;;;;1.33;0.28;;;;;;;3.45;86.99;94954.22;5069621;28;20031;-75
2021/03/12 05:06:22;;;;;;;3.33;0.68;;;;;;;3.37;87.67;94954.72;5052347;28;20053;-74
2021/03/12 05:08:48;;;;;;;2.75;0.63;;;;;;;3.31;87.79;94961.81;5052267;28;20051;-75
2021/03/12 05:11:14;;;;;;;0.82;0.20;;;;;;;3.39;87.94;94958.69;5052339;28;20132;-75
2021/03/12 05:13:40;;;;;;;2.22;0.70;;;;;;;3.48;86.96;94971.28;5050951;28;20536;-74
2021/03/12 05:16:05;;;;;;;5.13;0.70;;;;;;;3.39;86.45;94947.38;5052811;28;20033;-74
2021/03/12 05:18:31;;;;;;;3.15;0.40;;;;;;;3.51;86.18;94958.41;5050675;28;20059;-74
2021/03/12 05:20:56;;;;;;;3.35;0.60;;;;;;;3.48;87.31;94958.97;5052168;28;20073;-72
2021/03/12 05:23:23;;;;;;;2.83;0.50;;;;;;;3.44;86.45;94960.53;5051970;28;20127;-75
2021/03/12 05:25:49;;;;;;;4.07;0.80;;;;;;;3.70;86.23;94958.69;5052088;28;20048;-73
2021/03/12 05:28:15;;;;;;;1.85;0.40;;;;;;;3.71;86.51;94954.97;5053515;28;20029;-74
2021/03/12 05:30:40;;;;;;;3.95;0.73;;;;;;;3.66;86.09;94962.88;5051856;28;20553;-74
2021/03/12 05:33:06;;;;;;;2.95;0.52;;;;;;;3.54;87.46;94971.03;5050465;28;20037;-74
2021/03/12 05:35:32;;;;;;;3.50;0.70;;;;;;;3.51;87.79;94971.56;5051885;28;20025;-74
2021/03/12 05:37:58;;;;;;;3.05;0.50;;;;;;;3.47;87.32;94965.25;5051512;28;20499;-76
2021/03/12 05:40:23;;;;;;;4.07;0.98;;;;;;;3.52;88.33;94983.66;5051965;28;20060;-76
2021/03/12 05:42:51;;;;;;;2.72;0.70;;;;;;;3.52;87.24;94956.56;5053420;28;20031;-75
2021/03/12 05:45:19;;;;;;;3.17;0.75;;;;;;;3.96;86.59;95012.06;5051128;28;20086;-75
2021/03/12 05:47:45;;;;;;;3.33;0.65;;;;;;;3.95;86.18;94992.06;5051173;28;20040;-76
2021/03/12 05:50:11;;;;;;;5.30;0.88;;;;;;;4.08;84.99;94988.88;5051275;28;20055;-76
2021/03/12 05:52:37;;;;;;;2.25;0.80;;;;;;;4.09;85.42;94989.66;5051429;28;20379;-75
2021/03/12 05:55:03;;;;;;;5.10;0.77;;;;;;;4.24;84.39;94992.25;5052491;28;20020;-75
2021/03/12 05:57:30;;;;;;;2.50;0.70;;;;;;;4.46;84.05;95007.75;5051349;28;20033;-74
2021/03/12 05:59:58;;;;;;;1.27;0.65;;;;;;;4.77;82.84;95012.91;5050142;28;20029;-75
2021/03/12 06:02:23;;;;;;;2.55;0.88;;;;;;;4.79;82.75;95013.41;5049413;28;20044;-76
2021/03/12 06:04:49;;;;;;;2.53;0.90;;;;;;;4.99;82.06;94994.88;5051075;28;20044;-74
2021/03/12 06:07:15;;;;;;;3.90;0.90;;;;;;;5.12;82.01;95004.06;5052774;28;20064;-75
2021/03/12 06:09:41;;;;;;;4.07;1.08;;;;;;;5.36;81.15;95009.44;5051112;28;20049;-75
2021/03/12 06:12:08;;;;;;;3.53;0.82;;;;;;;5.56;80.89;95005.88;5051025;28;20060;-74
2021/03/12 06:14:56;;;;;;;1.73;0.90;;;;;;;5.77;80.27;95025.75;5051076;28;20036;-75
2021/03/12 06:17:45;;;;;;;1.38;0.70;;;;;;;5.99;80.16;95034.06;5050918;28;20078;-74
2021/03/12 06:20:14;;;;;;;3.42;0.80;;;;;;;5.81;80.36;95036.56;5045637;28;20040;-75
2021/03/12 06:22:53;;;;;;;2.30;0.80;;;;;;;5.85;80.39;95048.16;5050863;28;20029;-75
2021/03/12 06:25:27;;;;;;;5.72;0.90;;;;;;;5.96;79.61;95057.59;5052758;28;20478;-76
2021/03/12 06:27:53;;;;;;;2.92;1.20;;;;;;;5.97;79.54;95057.31;5051057;28;20048;-75
2021/03/12 06:30:21;;;;;;;3.13;1.17;;;;;;;5.79;79.07;95044.75;5050849;28;20132;-75
2021/03/12 06:32:48;;;;;;;1.23;0.77;;;;;;;6.18;79.56;95067.69;5050578;28;20041;-77
2021/03/12 06:35:16;;;;;;;2.88;0.75;;;;;;;6.09;79.03;95075.44;5050902;28;20032;-77
2021/03/12 06:37:45;;;;;;;2.20;0.90;;;;;;;5.83;79.46;95060.81;5050886;28;20060;-75
2021/03/12 06:40:22;;;;;;;2.72;1.40;;;;;;;5.88;80.13;95087.97;5052872;28;20077;-77
2021/03/12 06:43:05;;;;;;;1.30;0.80;;;;;;;5.56;79.68;95085.81;5049941;28;20063;-77
2021/03/12 06:45:33;;;;;;;3.65;0.80;;;;;;;5.67;80.09;95087.31;5050714;28;20034;-78
2021/03/12 06:48:23;;;;;;;5.60;1.40;;;;;;;5.81;79.26;95092.00;5050402;28;20548;-68
2021/03/12 06:51:05;;;;;;;3.42;1.08;;;;;;;6.07;79.28;95103.97;5050395;28;20049;-72
2021/03/12 06:53:36;;;;;;;2.30;0.70;;;;;;;5.29;81.27;95102.03;5048417;28;20033;-68
2021/03/12 06:56:10;;;;;;;4.00;1.05;;;;;;;5.46;80.14;95101.69;5048575;28;20041;-76
2021/03/12 06:58:36;;;;;;;2.70;0.95;;;;;;;5.96;79.11;95099.84;5049616;28;20020;-78
2021/03/12 07:01:16;;;;;;;2.45;0.80;;;;;;;5.84;79.84;95110.72;5050881;28;20522;-73
2021/03/12 07:03:42;;;;;;;3.05;1.00;;;;;;;5.19;81.05;95129.25;5032808;28;20132;-70
2021/03/12 07:06:15;;;;;;;3.58;0.88;;;;;;;5.41;79.47;95130.72;5041757;28;20068;-71
2021/03/12 07:08:45;;;;;;;4.68;0.70;;;;;;;5.25;79.45;95123.94;5036876;28;20067;-71
2021/03/12 07:11:28;;;;;;;4.75;1.00;;;;;;;5.20;78.84;95132.66;5030748;28;20037;-71
2021/03/12 07:13:55;;;;;;;;;;;;;;;5.14;78.91;95139.03;5029017;28;20136;-77
2021/03/12 07:16:22;;;;;;;3.65;0.77;;;;;;;5.31;77.30;95143.97;5032012;28;19913;-69
2021/03/12 07:18:52;;;;;;;5.20;0.68;;;;;;;5.12;78.04;95134.03;5030774;28;20034;-75
2021/03/12 07:21:21;;;;;;;5.47;0.90;;;;;;;4.90;78.68;95142.25;5028971;28;20064;-76
2021/03/12 07:23:48;;;;;;;2.17;0.70;;;;;;;4.79;76.10;95153.88;5029797;28;20049;-77
2021/03/12 07:26:16;;;;;;;3.55;1.23;;;;;;;4.78;76.31;95138.34;5028287;28;20030;-78
2021/03/12 07:28:43;;;;;;;3.90;0.80;;;;;;;5.24;73.95;95149.53;5030669;28;20079;-80
2021/03/12 07:31:11;;;;;;;4.70;0.75;;;;;;;5.33;74.85;95141.88;5032637;28;20025;-75
2021/03/12 07:33:39;;;;;;;2.40;0.60;;;;;;;5.63;74.00;95149.63;5030712;28;20037;-77
2021/03/12 07:36:06;;;;;;;2.15;0.75;;;;;;;5.70;71.83;95165.16;5028755;28;20029;-73
2021/03/12 07:38:35;;;;;;;1.38;0.50;;;;;;;5.72;71.45;95150.63;5029297;28;20120;-70
2021/03/12 07:41:05;;;;;;;1.70;0.77;;;;;;;5.57;72.49;95163.88;5029617;28;20040;-76
2021/03/12 07:43:37;;;;;;;2.10;0.70;;;;;;;5.37;72.17;95161.34;5029878;28;20021;-78
2021/03/12 07:46:03;;;;;;;1.17;0.73;;;;;;;5.47;73.18;95171.84;5032878;28;20448;-79
2021/03/12 07:48:30;;;;;;;2.83;0.73;;;;;;;5.90;70.74;95188.81;5029314;28;20045;-76
2021/03/12 07:51:13;;;;;;;3.33;0.68;;;;;;;5.93;70.51;95176.94;5030737;28;20034;-82
2021/03/12 07:53:46;;;;;;;2.97;0.90;;;;;;;6.08;69.75;95183.97;5029766;28;20065;-69
2021/03/12 07:56:12;;;;;;;3.13;0.70;;;;;;;6.06;69.56;95176.34;5029436;28;20040;-75
2021/03/12 07:58:50;;;;;;;4.07;0.47;;;;;;;5.67;69.75;95184.97;5029807;28;20021;-79
2021/03/12 08:01:16;;;;;;;5.63;0.77;;;;;;;5.94;69.07;95174.03;5032761;28;20112;-75
2021/03/12 08:03:45;;;;;;;4.57;1.23;;;;;;;5.94;69.02;95175.88;5028447;28;20042;-78
2021/03/12 08:06:32;;;;;;;3.38;0.30;;;;;;;5.64;68.69;95182.88;5028728;28;20546;-75
2021/03/12 08:08:58;;;;;;;3.63;0.65;;;;;;;5.86;67.79;95181.72;5030648;28;20344;-83
2021/03/12 08:11:33;;;;;;;2.75;1.05;;;;;;;5.87;66.89;95168.22;5029027;28;20029;-81
2021/03/12 08:14:13;;;;;;;2.65;0.63;;;;;;;5.76;68.03;95165.91;5030406;28;20041;-76
2021/03/12 08:16:57;;;;;;;2.53;0.50;;;;;;;6.23;66.59;95157.47;5029664;28;20032;-80
2021/03/12 08:19:34;;;;;;;2.05;0.45;;;;;;;5.93;66.83;95161.88;5032149;28;20026;-82
2021/03/12 08:22:26;;;;;;;2.05;0.60;;;;;;;5.65;69.39;95157.28;5029535;28;20029;-75
2021/03/12 08:24:52;;;;;;;1.75;0.70;;;;;;;5.94;68.08;95160.84;5027180;28;20056;-76
2021/03/12 08:27:48;;;;;;;5.00;0.65;;;;;;;5.91;67.72;95142.06;5027907;28;20092;-76
2021/03/12 08:30:34;;;;;;;2.80;0.77;;;;;;;5.94;67.41;95137.06;5029560;28;20037;-83
2021/03/12 08:33:04;;;;;;;3.58;0.60;;;;;;;5.79;67.34;95154.84;5022301;28;20052;-84
2021/03/12 08:35:37;;;;;;;2.00;0.80;;;;;;;5.92;68.08;95146.31;5030031;28;20076;-82
2021/03/12 08:38:22;;;;;;;2.45;1.05;;;;;;;5.69;67.59;95142.47;5031137;28;20037;-81
2021/03/12 08:40:55;;;;;;;2.97;0.63;;;;;;;5.79;67.91;95141.63;5030902;28;20038;-83
2021/03/12 08:43:21;;;;;;;4.57;0.93;;;;;;;5.90;67.91;95129.94;5031596;28;20032;-83
2021/03/12 08:45:47;;;;;;;3.38;0.70;;;;;;;5.99;67.26;95131.75;5030886;28;20710;-79
2021/03/12 08:48:18;;;;;;;2.53;0.55;;;;;;;5.83;65.51;95145.28;5030556;28;20033;-82
2021/03/12 08:51:14;;;;;;;1.35;0.47;;;;;;;6.05;65.71;95135.16;5031008;28;20076;-84
2021/03/12 08:53:44;;;;;;;3.45;0.80;;;;;;;6.28;64.23;95122.28;5030088;28;20111;-80
2021/03/12 08:56:11;;;;;;;3.65;0.60;;;;;;;6.39;62.95;95148.34;5028902;28;20048;-80
2021/03/12 08:58:38;;;;;;;2.95;0.60;;;;;;;6.25;63.22;95111.22;5030154;28;20537;-83
2021/03/12 09:01:14;;;;;;;4.72;0.63;;;;;;;6.53;61.41;95124.72;5030885;28;20368;-83
2021/03/12 09:03:46;;;;;;;2.13;0.52;;;;;;;6.60;62.50;95100.59;5030383;28;20667;-80
2021/03/12 09:06:13;;;;;;;3.13;0.70;;;;;;;6.71;60.55;95121.41;5030021;28;20034;-81
2021/03/12 09:08:40;;;;;;;5.28;0.55;;;;;;;6.92;61.39;95129.13;5028836;28;20068;-80
2021/03/12 09:11:08;;;;;;;4.88;0.93;;;;;;;6.93;59.02;95125.41;5029942;28;20053;-78
2021/03/12 09:13:36;;;;;;;2.13;0.65;;;;;;;7.16;58.62;95115.88;5029644;28;20076;-78
2021/03/12 09:16:03;;;;;;;2.45;0.85;;;;;;;6.96;59.18;95107.13;5031671;28;20033;-77
2021/03/12 09:18:30;;;;;;;2.97;0.40;;;;;;;7.36;57.58;95117.50;5029758;28;20029;-78
2021/03/12 09:20:57;;;;;;;3.95;0.90;;;;;;;8.18;54.86;95104.69;5031622;28;20040;-77
2021/03/12 09:23:44;;;;;;;2.30;0.50;;;;;;;7.29;54.75;95121.28;5033400;28;20395;-79
2021/03/12 09:26:18;;;;;;;4.10;0.63;;;;;;;7.78;54.69;95104.25;5032187;28;20037;-80
2021/03/12 09:28:45;;;;;;;4.82;0.85;;;;;;;7.19;53.90;95073.78;5033551;28;20117;-80
2021/03/12 09:31:14;;;;;;;0.40;0.28;;;;;;;7.13;54.24;95090.78;5034154;28;20022;-78
2021/03/12 09:33:39;;;;;;;6.75;0.80;;;;;;;7.69;52.20;95100.66;5033624;28;20137;-77
2021/03/12 09:36:30;;;;;;;2.05;0.70;;;;;;;7.41;52.75;95097.03;5033656;28;20128;-78
2021/03/12 09:39:19;;;;;;;3.30;0.30;;;;;;;7.74;51.16;95082.06;5033186;28;20037;-76
2021/03/12 09:41:52;;;;;;;3.95;0.75;;;;;;;8.24;49.26;95094.78;5033211;28;20491;-78
2021/03/12 09:44:17;;;;;;;2.65;0.55;;;;;;;7.87;49.56;95091.13;5033244;28;20033;-80
2021/03/12 09:46:51;;;;;;;4.32;0.90;;;;;;;8.57;48.44;95083.16;5033149;28;20117;-79
2021/03/12 09:49:20;;;;;;;2.42;0.60;;;;;;;8.11;48.91;95096.34;5035453;28;20029;-80
2021/03/12 09:51:48;;;;;;;2.92;0.45;;;;;;;8.07;48.70;95097.97;5032055;28;20030;-80
2021/03/12 09:54:15;;;;;;;3.92;0.70;;;;;;;8.24;48.49;95092.16;5033266;28;20038;-78
2021/03/12 09:56:46;;;;;;;3.22;0.70;;;;;;;8.67;48.48;95087.47;5033106;28;20037;-77
2021/03/12 09:59:12;;;;;;;1.92;0.63;;;;;;;8.25;48.50;95088.44;5032698;28;20092;-77
2021/03/12 10:01:43;;;;;;;1.63;0.60;;;;;;;8.79;48.48;95092.31;5033012;28;20041;-81
2021/03/12 10:04:29;;;;;;;1.85;0.38;;;;;;;8.39;48.51;95072.59;5035102;28;20028;-79
2021/03/12 10:07:10;;;;;;;1.17;0.50;;;;;;;8.59;47.97;95091.59;5033617;28;20048;-80
2021/03/12 10:09:42;;;;;;;1.10;0.55;;;;;;;9.07;47.15;95075.34;5031781;28;20038;-80
2021/03/12 10:12:25;;;;;;;1.20;0.40;;;;;;;8.80;46.98;95070.81;5032637;28;20044;-76
2021/03/12 10:14:52;;;;;;;1.40;0.43;;;;;;;8.45;47.39;95074.88;5032584;28;20045;-78
2021/03/12 10:17:26;;;;;;;1.70;0.57;;;;;;;8.84;47.12;95079.72;5032521;28;20071;-76
2021/03/12 10:19:57;;;;;;;3.35;0.60;;;;;;;8.30;48.34;95086.50;5032300;28;20045;-77
2021/03/12 10:22:27;;;;;;;2.58;0.85;;;;;;;8.27;48.58;95073.03;5032640;28;20029;-66
2021/03/12 10:25:01;;;;;;;3.95;0.57;;;;;;;8.10;48.36;95062.97;5033491;28;20030;-77
2021/03/12 10:27:33;;;;;;;2.92;0.70;;;;;;;8.33;47.86;95062.03;5031526;28;20068;-74
2021/03/12 10:29:59;;;;;;;3.05;0.63;;;;;;;9.22;46.81;95081.44;5032483;28;20116;-75
2021/03/12 10:32:25;;;;;;;4.53;0.80;;;;;;;8.95;47.36;95067.06;5031144;28;20056;-78
2021/03/12 10:34:53;;;;;;;1.98;0.60;;;;;;;8.39;49.11;95069.94;5031610;28;20104;-72
2021/03/12 10:37:20;;;;;;;3.22;0.88;;;;;;;8.77;48.69;95083.88;5032297;28;20112;-75
2021/03/12 10:39:48;;;;;;;4.97;1.02;;;;;;;8.71;49.68;95066.47;5030263;28;20037;-77
2021/03/12 10:42:14;;;;;;;2.15;0.88;;;;;;;8.13;47.67;95085.44;5031287;28;20507;-75
2021/03/12 10:44:55;;;;;;;2.08;0.50;;;;;;;7.39;49.71;95067.44;5028990;28;20102;-77
2021/03/12 10:47:21;;;;;;;4.75;1.00;;;;;;;7.80;49.78;95080.91;5030909;28;20025;-74
2021/03/12 10:49:47;;;;;;;2.67;0.88;;;;;;;8.31;49.36;95074.03;5030271;28;20041;-74
2021/03/12 10:52:27;;;;;;;3.80;0.80;;;;;;;8.87;47.82;95056.38;5031618;28;20544;-74
2021/03/12 10:54:53;;;;;;;9.30;1.17;;;;;;;9.11;47.64;95072.88;5031803;28;20522;-78
2021/03/12 10:57:34;;;;;;;5.93;0.90;;;;;;;8.76;47.40;95069.03;5031771;28;20041;-71
2021/03/12 10:59:59;;;;;;;0.70;0.38;;;;;;;8.35;49.03;95077.69;5031665;28;20033;-79
2021/03/12 11:02:35;;;;;;;3.22;0.82;;;;;;;8.46;49.13;95065.84;5030420;28;20038;-84
2021/03/12 11:05:01;;;;;;;4.88;0.40;;;;;;;7.86;49.74;95062.28;5032267;28;20050;-81
2021/03/12 11:07:27;;;;;;;4.35;0.75;;;;;;;7.81;50.27;95061.28;5029097;28;20384;-70
2021/03/12 11:09:52;;;;;;;4.10;0.50;;;;;;;7.77;50.55;95084.13;5033237;28;20025;-81
2021/03/12 11:12:18;;;;;;;3.28;0.90;;;;;;;7.84;49.44;95032.69;5031133;28;20063;-71
2021/03/12 11:14:44;;;;;;;0.93;0.30;;;;;;;7.55;49.18;95057.44;5031238;28;20110;-78
2021/03/12 11:17:12;;;;;;;6.07;1.10;;;;;;;7.75;49.61;95057.16;5031087;28;20399;-82
2021/03/12 11:19:37;;;;;;;4.85;0.80;;;;;;;7.99;50.28;95041.16;5029715;28;20029;-77
2021/03/12 11:22:03;;;;;;;2.75;0.57;;;;;;;7.88;49.07;95039.72;5032467;28;20037;-79
2021/03/12 11:24:28;;;;;;;1.05;0.30;;;;;;;7.42;48.06;95066.06;5031206;28;20030;-79
2021/03/12 11:26:53;;;;;;;2.90;0.50;;;;;;;7.95;48.14;95026.13;5031048;28;20064;-75
2021/03/12 11:29:19;;;;;;;5.22;1.20;;;;;;;8.45;47.62;95034.34;5030611;28;20049;-78
2021/03/12 11:31:44;;;;;;;5.05;0.88;;;;;;;9.23;45.23;95006.81;5029406;28;20132;-82
2021/03/12 11:34:10;;;;;;;4.55;0.85;;;;;;;9.20;45.74;95025.19;5032853;28;20029;-82
2021/03/12 11:36:35;;;;;;;2.33;0.57;;;;;;;9.23;44.69;95016.66;5031242;28;20104;-79
2021/03/12 11:39:00;;;;;;;1.67;0.60;;;;;;;9.25;43.48;95015.25;5030931;28;20048;-78
2021/03/12 11:41:27;;;;;;;4.85;0.80;;;;;;;9.25;44.35;95012.59;5029279;28;20452;-78
2021/03/12 11:43:52;;;;;;;3.00;0.98;;;;;;;9.48;42.98;95017.97;5030038;28;20124;-78
2021/03/12 11:46:18;;;;;;;2.67;0.70;;;;;;;9.84;42.26;94999.34;5032560;28;20105;-78
2021/03/12 11:48:43;;;;;;;6.00;1.48;;;;;;;9.40;42.42;95018.66;5030243;28;20060;-76
2021/03/12 11:51:08;;;;;;;5.78;0.90;;;;;;;9.03;43.41;95015.19;5030149;28;20399;-76